createdAt,value
2023-01-15T00:01:03.544Z,18.75
2023-01-15T00:03:37.217Z,20.35
2023-01-15T00:06:10.945Z,22.20
2023-01-15T00:08:45.393Z,20.08
2023-01-15T00:11:20.062Z,19.32
2023-01-15T00:13:54.606Z,18.48
2023-01-15T00:16:29.220Z,19.35
2023-01-15T00:19:04.853Z,19.35
2023-01-15T00:21:39.321Z,18.82
2023-01-15T00:27:21.090Z,19.85
2023-01-15T00:29:56.032Z,19.62
2023-01-15T00:32:30.030Z,19.48
2023-01-15T00:35:04.104Z,18.20
2023-01-15T00:37:38.389Z,21.23
2023-01-15T00:40:14.272Z,20.43
2023-01-15T00:42:54.603Z,20.15
2023-01-15T00:45:24.362Z,21.73
2023-01-15T00:47:58.462Z,21.70
2023-01-15T00:50:33.352Z,19.90
2023-01-15T00:53:07.744Z,21.37
2023-01-15T00:55:41.598Z,19.52
2023-01-15T00:58:15.328Z,20.32
2023-01-15T01:00:55.192Z,20.32
2023-01-15T01:03:30.320Z,21.07
2023-01-15T01:06:05.175Z,20.35
2023-01-15T01:08:40.478Z,22.10
2023-01-15T01:11:18.121Z,21.42
2023-01-15T01:13:52.268Z,20.60
2023-01-15T01:16:32.145Z,19.52
2023-01-15T01:19:10.539Z,18.95
2023-01-15T01:21:45.591Z,18.17
2023-01-15T01:24:23.128Z,22.65
2023-01-15T01:26:59.207Z,21.55
2023-01-15T01:29:32.871Z,25.75
2023-01-15T01:32:06.853Z,21.68
2023-01-15T01:34:41.431Z,23.18
2023-01-15T01:37:15.280Z,21.05
2023-01-15T01:39:49.155Z,20.97
2023-01-15T01:42:24.195Z,21.60
2023-01-15T01:45:23.885Z,21.05
2023-01-15T01:48:04.363Z,20.02
2023-01-15T01:50:39.644Z,19.85
2023-01-15T01:53:23.198Z,20.85
2023-01-15T01:55:58.562Z,22.37
2023-01-15T01:58:33.649Z,21.15
2023-01-15T02:01:07.802Z,20.85
2023-01-15T02:03:42.821Z,19.15
2023-01-15T02:06:17.963Z,19.15
2023-01-15T02:08:51.651Z,20.75
2023-01-15T02:11:27.006Z,19.07
2023-01-15T02:14:22.656Z,19.02
2023-01-15T02:17:12.939Z,17.45
2023-01-15T02:20:06.417Z,17.82
2023-01-15T02:22:51.352Z,19.75
2023-01-15T02:25:32.717Z,17.65
2023-01-15T02:28:17.710Z,19.98
2023-01-15T02:31:17.506Z,19.48
2023-01-15T02:34:02.382Z,20.40
2023-01-15T02:36:41.413Z,19.35
2023-01-15T02:39:18.584Z,18.67
2023-01-15T02:41:55.401Z,18.92
2023-01-15T02:44:33.049Z,18.60
2023-01-15T02:47:07.425Z,17.65
2023-01-15T02:49:42.103Z,17.55
2023-01-15T02:52:22.331Z,19.05
2023-01-15T02:55:03.410Z,18.62
2023-01-15T02:57:40.142Z,19.20
2023-01-15T03:00:16.699Z,19.67
2023-01-15T03:02:58.456Z,18.90
2023-01-15T03:05:51.533Z,18.10
2023-01-15T03:08:25.691Z,17.37
2023-01-15T03:11:09.560Z,18.15
2023-01-15T03:14:00.962Z,16.27
2023-01-15T03:16:41.096Z,16.80
2023-01-15T03:19:37.239Z,19.65
2023-01-15T03:22:21.094Z,15.53
2023-01-15T03:25:03.461Z,15.30
2023-01-15T03:27:39.271Z,17.00
2023-01-15T03:30:20.603Z,17.52
2023-01-15T03:32:57.066Z,14.38
2023-01-15T03:35:56.727Z,14.85
2023-01-15T03:38:38.336Z,15.03
2023-01-15T03:41:28.799Z,14.65
2023-01-15T03:44:51.149Z,17.55
2023-01-15T03:47:36.278Z,16.62
2023-01-15T03:50:17.564Z,14.13
2023-01-15T03:53:31.382Z,15.05
2023-01-15T03:56:16.550Z,13.25
2023-01-15T03:59:03.057Z,13.58
2023-01-15T04:01:41.388Z,13.45
2023-01-15T04:04:16.198Z,13.58
2023-01-15T04:06:51.643Z,12.43
2023-01-15T04:09:26.472Z,13.48
2023-01-15T04:12:02.939Z,13.95
2023-01-15T04:14:39.060Z,14.28
2023-01-15T04:17:14.462Z,13.48
2023-01-15T04:19:48.122Z,15.00
2023-01-15T04:22:22.665Z,14.63
2023-01-15T04:24:56.568Z,14.07
2023-01-15T04:27:30.487Z,14.60
2023-01-15T04:30:04.233Z,13.45
2023-01-15T04:32:38.655Z,13.38
2023-01-15T04:35:12.411Z,14.80
2023-01-15T04:37:47.235Z,13.30
2023-01-15T04:40:31.875Z,12.18
2023-01-15T04:45:57.147Z,12.25
2023-01-15T04:48:31.819Z,11.08
2023-01-15T04:51:06.925Z,13.40
2023-01-15T04:53:40.929Z,11.68
2023-01-15T04:56:14.804Z,11.73
2023-01-15T04:58:48.550Z,11.60
2023-01-15T05:01:22.695Z,12.43
2023-01-15T05:03:58.176Z,11.93
2023-01-15T05:06:32.371Z,13.00
2023-01-15T05:11:41.536Z,13.80
2023-01-15T05:14:15.344Z,14.33
2023-01-15T05:16:49.182Z,16.02
2023-01-15T05:19:23.561Z,13.85
2023-01-15T05:21:58.585Z,14.18
2023-01-15T05:24:32.391Z,14.73
2023-01-15T05:27:06.336Z,20.45
2023-01-15T05:29:40.084Z,15.63
2023-01-15T05:32:13.868Z,18.85
2023-01-15T05:37:20.967Z,15.48
2023-01-15T05:39:54.757Z,13.83
2023-01-15T05:42:28.726Z,13.93
2023-01-15T05:47:36.134Z,12.50
2023-01-15T05:50:11.607Z,12.73
2023-01-15T05:52:45.724Z,11.97
2023-01-15T05:55:19.610Z,12.75
2023-01-15T05:57:53.414Z,12.23
2023-01-15T06:03:01.371Z,10.72
2023-01-15T06:05:35.121Z,13.68
2023-01-15T06:08:09.070Z,12.93
2023-01-15T06:10:45.797Z,12.90
2023-01-15T06:13:19.906Z,13.15
2023-01-15T06:18:26.508Z,15.05
2023-01-15T06:23:38.292Z,17.05
2023-01-15T06:26:17.075Z,16.90
2023-01-15T06:28:51.080Z,15.15
2023-01-15T06:31:29.636Z,16.37
2023-01-15T06:34:03.433Z,16.35
2023-01-15T06:36:38.067Z,17.12
2023-01-15T06:39:11.906Z,15.13
2023-01-15T06:42:03.566Z,18.77
2023-01-15T06:44:55.321Z,18.62
2023-01-15T06:47:29.774Z,19.50
2023-01-15T06:50:03.660Z,18.92
2023-01-15T06:52:37.588Z,17.35
2023-01-15T06:55:11.965Z,17.60
2023-01-15T06:57:46.348Z,14.75
2023-01-15T07:00:20.603Z,21.10
2023-01-15T07:02:54.564Z,20.80
2023-01-15T07:08:01.433Z,15.93
2023-01-15T07:10:37.304Z,14.03
2023-01-15T07:13:15.858Z,15.65
2023-01-15T07:15:49.541Z,15.10
2023-01-15T07:21:00.194Z,14.85
2023-01-15T07:23:35.660Z,17.25
2023-01-15T07:26:10.586Z,30.10
2023-01-15T07:28:44.368Z,27.93
2023-01-15T07:31:18.892Z,31.20
2023-01-15T07:33:52.871Z,22.50
2023-01-15T07:36:27.225Z,20.45
2023-01-15T07:39:04.724Z,17.87
2023-01-15T07:41:57.119Z,20.50
2023-01-15T07:44:49.790Z,27.67
2023-01-15T07:47:44.249Z,34.35
2023-01-15T07:50:25.806Z,22.35
2023-01-15T07:52:59.525Z,23.47
2023-01-15T07:55:35.920Z,23.95
2023-01-15T07:58:09.632Z,20.97
2023-01-15T08:00:43.321Z,18.85
2023-01-15T08:03:17.102Z,20.45
2023-01-15T08:08:24.331Z,21.27
2023-01-15T08:11:20.958Z,20.27
2023-01-15T08:14:13.021Z,21.02
2023-01-15T08:16:47.013Z,18.92
2023-01-15T08:19:20.890Z,21.55
2023-01-15T08:21:54.731Z,21.73
2023-01-15T08:24:30.671Z,25.55
2023-01-15T08:27:05.279Z,18.27
2023-01-15T08:29:39.511Z,22.37
2023-01-15T08:34:46.854Z,17.98
2023-01-15T08:37:23.240Z,21.20
2023-01-15T08:39:57.249Z,17.23
2023-01-15T08:42:30.974Z,16.40
2023-01-15T08:45:05.252Z,16.32
2023-01-15T08:47:38.989Z,22.10
2023-01-15T08:50:13.558Z,19.37
2023-01-15T08:52:48.141Z,17.50
2023-01-15T08:55:24.183Z,25.95
2023-01-15T08:57:58.652Z,23.47
2023-01-15T09:00:32.328Z,18.90
2023-01-15T09:03:06.426Z,19.90
2023-01-15T09:05:41.090Z,21.25
2023-01-15T09:10:48.641Z,20.60
2023-01-15T09:13:22.354Z,19.92
2023-01-15T09:16:03.163Z,20.80
2023-01-15T09:18:39.456Z,20.17
2023-01-15T09:21:13.436Z,23.22
2023-01-15T09:23:47.909Z,22.98
2023-01-15T09:26:34.481Z,22.52
2023-01-15T09:29:09.509Z,19.55
2023-01-15T09:31:44.209Z,20.77
2023-01-15T09:34:18.160Z,20.68
2023-01-15T09:36:52.045Z,20.52
2023-01-15T09:39:26.915Z,22.35
2023-01-15T09:42:16.352Z,19.20
2023-01-15T09:45:21.361Z,25.88
2023-01-15T09:48:08.735Z,25.10
2023-01-15T09:51:05.536Z,21.95
2023-01-15T09:53:56.203Z,22.82
2023-01-15T09:56:33.776Z,19.52
2023-01-15T09:59:21.319Z,20.55
2023-01-15T10:01:55.350Z,27.98
2023-01-15T10:07:33.534Z,29.52
2023-01-15T10:10:15.728Z,27.20
2023-01-15T10:12:51.950Z,26.80
2023-01-15T10:15:35.959Z,22.30
2023-01-15T10:18:19.047Z,24.37
2023-01-15T10:21:37.053Z,23.18
2023-01-15T10:24:15.831Z,23.12
2023-01-15T10:27:00.757Z,24.27
2023-01-15T10:29:47.002Z,25.02
2023-01-15T10:33:02.121Z,24.32
2023-01-15T10:35:46.018Z,22.05
2023-01-15T10:38:48.860Z,26.55
2023-01-15T10:41:27.449Z,26.12
2023-01-15T10:44:14.433Z,28.38
2023-01-15T10:46:58.645Z,35.78
2023-01-15T10:49:35.425Z,24.67
2023-01-15T10:52:34.733Z,27.45
2023-01-15T10:55:22.506Z,29.52
2023-01-15T10:58:26.572Z,27.22
2023-01-15T11:01:16.786Z,26.37
2023-01-15T11:03:51.501Z,24.50
2023-01-15T11:06:26.489Z,32.65
2023-01-15T11:09:11.219Z,29.32
2023-01-15T11:11:59.933Z,29.57
2023-01-15T11:15:03.527Z,28.12
2023-01-15T11:18:06.014Z,28.65
2023-01-15T11:20:47.696Z,32.05
2023-01-15T11:23:23.588Z,35.92
2023-01-15T11:26:01.713Z,35.68
2023-01-15T11:28:43.558Z,29.87
2023-01-15T11:31:18.983Z,32.55
2023-01-15T11:34:05.335Z,28.80
2023-01-15T11:36:40.668Z,36.75
2023-01-15T11:39:28.658Z,28.57
2023-01-15T11:42:23.526Z,29.07
2023-01-15T11:48:14.459Z,31.30
2023-01-15T11:50:54.941Z,43.28
2023-01-15T11:53:32.938Z,43.52
2023-01-15T11:56:10.997Z,43.55
2023-01-15T11:58:54.558Z,48.02
2023-01-15T12:01:34.449Z,53.42
2023-01-15T12:04:25.283Z,35.83
2023-01-15T12:06:59.541Z,29.80
2023-01-15T12:09:55.501Z,33.10
2023-01-15T12:12:42.843Z,31.37
2023-01-15T12:15:40.617Z,28.12
2023-01-15T12:18:37.117Z,46.98
2023-01-15T12:21:38.170Z,42.58
2023-01-15T12:24:20.461Z,35.28
2023-01-15T12:27:18.439Z,33.15
2023-01-15T12:29:59.626Z,36.77
2023-01-15T12:32:43.220Z,38.95
2023-01-15T12:35:35.585Z,32.97
2023-01-15T12:38:25.799Z,30.70
2023-01-15T12:41:05.397Z,29.48
2023-01-15T12:43:56.615Z,27.35
2023-01-15T12:46:33.309Z,24.07
2023-01-15T12:49:23.119Z,27.65
2023-01-15T12:52:07.461Z,27.60
2023-01-15T12:54:46.025Z,33.20
2023-01-15T12:57:27.473Z,26.42
2023-01-15T13:00:07.615Z,30.20
2023-01-15T13:03:17.339Z,27.62
2023-01-15T13:06:01.591Z,28.57
2023-01-15T13:09:12.294Z,26.77
2023-01-15T13:11:46.259Z,24.52
2023-01-15T13:14:21.916Z,26.80
2023-01-15T13:17:06.520Z,27.15
2023-01-15T13:19:50.733Z,32.73
2023-01-15T13:22:27.941Z,36.08
2023-01-15T13:25:30.021Z,38.02
2023-01-15T13:28:19.848Z,34.15
2023-01-15T13:31:16.366Z,40.90
2023-01-15T13:33:53.886Z,29.48
2023-01-15T13:36:38.189Z,29.37
2023-01-15T13:39:19.328Z,33.90
2023-01-15T13:42:13.217Z,38.78
2023-01-15T13:44:52.911Z,41.80
2023-01-15T13:47:30.470Z,37.78
2023-01-15T13:50:08.388Z,68.37
2023-01-15T13:52:42.486Z,50.55
2023-01-15T13:55:38.315Z,47.53
2023-01-15T13:58:28.099Z,45.63
2023-01-15T14:01:24.201Z,39.33
2023-01-15T14:04:15.834Z,37.48
2023-01-15T14:06:52.360Z,39.55
2023-01-15T14:09:30.196Z,39.95
2023-01-15T14:12:25.326Z,40.55
2023-01-15T14:15:15.843Z,41.68
2023-01-15T14:18:38.156Z,38.17
2023-01-15T14:22:00.297Z,46.00
2023-01-15T14:24:46.611Z,35.13
2023-01-15T14:28:07.460Z,31.37
2023-01-15T14:31:10.356Z,43.68
2023-01-15T14:34:17.338Z,49.58
2023-01-15T14:37:08.995Z,52.95
2023-01-15T14:39:58.828Z,60.55
2023-01-15T14:42:54.289Z,88.45
2023-01-15T14:45:36.618Z,80.70
2023-01-15T14:48:34.626Z,53.55
2023-01-15T14:51:25.083Z,69.40
2023-01-15T14:54:09.096Z,67.55
2023-01-15T14:56:56.595Z,49.23
2023-01-15T14:59:50.225Z,50.50
2023-01-15T15:02:29.296Z,60.15
2023-01-15T15:05:03.848Z,62.15
2023-01-15T15:07:48.654Z,66.80
2023-01-15T15:10:30.302Z,55.17
2023-01-15T15:13:37.635Z,46.85
2023-01-15T15:16:24.391Z,54.03
2023-01-15T15:19:15.120Z,46.88
2023-01-15T15:21:49.981Z,49.13
2023-01-15T15:24:37.660Z,46.08
2023-01-15T15:27:20.675Z,43.50
2023-01-15T15:29:54.260Z,45.45
2023-01-15T15:32:27.871Z,44.93
2023-01-15T15:35:01.747Z,42.20
2023-01-15T15:37:35.698Z,41.50
2023-01-15T15:40:22.270Z,37.58
2023-01-15T15:43:21.471Z,35.65
2023-01-15T15:46:15.775Z,36.95
2023-01-15T15:48:53.412Z,33.18
2023-01-15T15:51:49.753Z,31.97
2023-01-15T15:54:31.007Z,29.98
2023-01-15T15:57:14.997Z,32.50
2023-01-15T15:59:52.091Z,34.83
2023-01-15T16:02:34.080Z,29.23
2023-01-15T16:05:26.966Z,32.75
2023-01-15T16:08:21.967Z,34.10
2023-01-15T16:10:58.972Z,36.47
2023-01-15T16:13:41.736Z,39.50
2023-01-15T16:16:20.068Z,38.38
2023-01-15T16:18:58.351Z,41.53
2023-01-15T16:21:37.643Z,38.70
2023-01-15T16:24:27.898Z,44.27
2023-01-15T16:27:15.814Z,46.45
2023-01-15T16:29:53.209Z,40.08
2023-01-15T16:32:30.391Z,35.05
2023-01-15T16:35:17.922Z,34.00
2023-01-15T16:37:56.219Z,27.07
2023-01-15T16:40:38.827Z,28.73
2023-01-15T16:43:21.028Z,29.30
2023-01-15T16:46:18.366Z,27.93
2023-01-15T16:48:52.151Z,28.65
2023-01-15T16:51:39.261Z,31.75
2023-01-15T16:54:34.796Z,30.60
2023-01-15T16:57:35.533Z,26.10
2023-01-15T17:00:13.023Z,29.55
2023-01-15T17:02:48.055Z,30.68
2023-01-15T17:05:24.991Z,33.00
2023-01-15T17:07:59.293Z,34.40
2023-01-15T17:10:33.254Z,32.08
2023-01-15T17:13:07.512Z,28.65
2023-01-15T17:15:42.900Z,30.27
2023-01-15T17:18:28.873Z,30.82
2023-01-15T17:21:03.378Z,30.43
2023-01-15T17:23:43.128Z,28.10
2023-01-15T17:26:22.722Z,31.25
2023-01-15T17:28:56.568Z,33.28
2023-01-15T17:31:34.205Z,35.30
2023-01-15T17:34:08.275Z,36.93
2023-01-15T17:36:42.036Z,38.50
2023-01-15T17:39:18.112Z,32.15
2023-01-15T17:41:52.030Z,32.70
2023-01-15T17:44:25.880Z,31.75
2023-01-15T17:46:59.747Z,33.78
2023-01-15T17:49:33.614Z,36.10
2023-01-15T17:52:10.212Z,31.23
2023-01-15T17:55:02.728Z,29.35
2023-01-15T17:57:54.452Z,28.73
2023-01-15T18:00:48.512Z,24.72
2023-01-15T18:03:41.876Z,25.35
2023-01-15T18:06:17.520Z,23.57
2023-01-15T18:08:56.822Z,22.75
2023-01-15T18:11:31.589Z,23.15
2023-01-15T18:14:06.253Z,27.22
2023-01-15T18:16:41.275Z,29.00
2023-01-15T18:19:15.185Z,27.37
2023-01-15T18:21:50.257Z,31.42
2023-01-15T18:24:24.240Z,28.05
2023-01-15T18:26:58.229Z,28.00
2023-01-15T18:29:32.557Z,24.60
2023-01-15T18:34:39.852Z,23.02
2023-01-15T18:37:13.719Z,24.02
2023-01-15T18:39:48.215Z,27.35
2023-01-15T18:42:39.927Z,30.60
2023-01-15T18:45:31.888Z,37.65
2023-01-15T18:48:05.666Z,42.15
2023-01-15T18:50:40.125Z,37.98
2023-01-15T18:53:14.447Z,38.28
2023-01-15T18:55:48.388Z,28.90
2023-01-15T18:58:22.180Z,33.30
2023-01-15T19:00:56.830Z,23.00
2023-01-15T19:06:13.280Z,25.02
2023-01-15T19:08:47.759Z,18.40
2023-01-15T19:11:22.459Z,19.02
2023-01-15T19:14:14.598Z,20.48
2023-01-15T19:17:06.779Z,22.00
2023-01-15T19:19:42.315Z,25.62
2023-01-15T19:22:33.997Z,28.42
2023-01-15T19:25:08.870Z,29.82
2023-01-15T19:27:42.771Z,30.12
2023-01-15T19:30:16.904Z,27.77
2023-01-15T19:32:50.775Z,28.85
2023-01-15T19:35:25.180Z,29.50
2023-01-15T19:40:34.483Z,23.10
2023-01-15T19:43:26.749Z,30.10
2023-01-15T19:46:18.765Z,44.05
2023-01-15T19:49:10.889Z,43.05
2023-01-15T19:52:02.264Z,44.53
2023-01-15T19:54:54.121Z,35.75
2023-01-15T19:57:27.844Z,32.55
2023-01-15T20:00:01.852Z,38.98
2023-01-15T20:02:38.806Z,36.13
2023-01-15T20:05:15.307Z,36.23
2023-01-15T20:07:49.425Z,36.23
2023-01-15T20:10:26.684Z,44.93
2023-01-15T20:13:18.289Z,47.93
2023-01-15T20:15:52.280Z,39.27
2023-01-15T20:18:25.914Z,37.73
2023-01-15T20:20:59.882Z,35.68
2023-01-15T20:26:13.000Z,33.90
2023-01-15T20:28:47.919Z,32.67
2023-01-15T20:31:21.933Z,32.85
2023-01-15T20:36:32.359Z,25.35
2023-01-15T20:39:07.123Z,19.92
2023-01-15T20:41:58.697Z,21.48
2023-01-15T20:44:51.084Z,20.77
2023-01-15T20:47:46.273Z,20.72
2023-01-15T20:50:20.997Z,20.65
2023-01-15T20:52:55.362Z,22.65
2023-01-15T20:55:45.622Z,22.20
2023-01-15T20:58:10.849Z,22.62
2023-01-15T21:00:44.701Z,20.97
2023-01-15T21:03:21.061Z,21.50
2023-01-15T21:05:58.435Z,22.65
2023-01-15T21:08:33.813Z,22.20
2023-01-15T21:11:08.121Z,22.87
2023-01-15T21:13:43.465Z,22.55
2023-01-15T21:16:17.641Z,20.97
2023-01-15T21:18:51.265Z,18.50
2023-01-15T21:21:25.078Z,20.50
2023-01-15T21:24:01.598Z,22.40
2023-01-15T21:26:37.787Z,22.62
2023-01-15T21:29:11.602Z,20.90
2023-01-15T21:31:46.058Z,23.47
2023-01-15T21:36:52.829Z,37.13
2023-01-15T21:39:26.915Z,27.90
2023-01-15T21:44:51.561Z,24.60
2023-01-15T21:47:26.506Z,31.17
2023-01-15T21:50:00.378Z,25.72
2023-01-15T21:52:34.715Z,23.32
2023-01-15T21:55:09.368Z,22.00
2023-01-15T21:57:43.681Z,21.70
2023-01-15T22:00:19.805Z,24.60
2023-01-15T22:02:55.352Z,24.77
2023-01-15T22:05:29.440Z,25.70
2023-01-15T22:08:05.154Z,24.30
2023-01-15T22:10:39.029Z,26.00
2023-01-15T22:15:45.844Z,29.67
2023-01-15T22:18:19.657Z,31.97
2023-01-15T22:21:01.985Z,27.27
2023-01-15T22:23:36.660Z,29.48
2023-01-15T22:26:19.261Z,30.60
2023-01-15T22:28:53.600Z,31.42
2023-01-15T22:31:28.927Z,46.00
2023-01-15T22:34:02.671Z,32.25
2023-01-15T22:36:37.175Z,29.23
2023-01-15T22:39:10.994Z,30.70
2023-01-15T22:42:03.386Z,29.77
2023-01-15T22:44:37.250Z,32.50
2023-01-15T22:47:11.018Z,41.05
2023-01-15T22:49:45.036Z,38.08
2023-01-15T22:52:19.070Z,32.48
2023-01-15T22:54:52.885Z,34.03
2023-01-15T22:57:26.629Z,26.48
2023-01-15T23:00:00.660Z,27.50
2023-01-15T23:02:52.544Z,25.17
2023-01-15T23:05:27.089Z,26.55
2023-01-15T23:08:00.952Z,30.43
2023-01-15T23:13:07.578Z,30.72
2023-01-15T23:15:41.626Z,33.85
2023-01-15T23:18:15.472Z,31.85
2023-01-15T23:20:49.206Z,29.70
2023-01-15T23:25:55.985Z,31.50
2023-01-15T23:28:29.761Z,30.68
2023-01-15T23:31:04.119Z,30.23
2023-01-15T23:33:38.664Z,27.32
2023-01-15T23:36:13.574Z,25.37
2023-01-15T23:38:47.623Z,26.45
2023-01-15T23:41:42.174Z,28.47
2023-01-15T23:44:39.499Z,24.15
2023-01-15T23:47:13.165Z,26.97
2023-01-15T23:49:46.793Z,24.98
2023-01-15T23:52:21.286Z,21.68
2023-01-15T23:54:55.942Z,20.02
2023-01-15T23:57:29.625Z,21.65
